createdAt,value
2019-01-14T00:00:26.429Z,92.42
2019-01-14T00:02:54.783Z,92.78
2019-01-14T00:05:23.324Z,93.06
2019-01-14T00:07:51.692Z,92.68
2019-01-14T00:10:19.956Z,92.84
2019-01-14T00:12:48.355Z,92.95
2019-01-14T00:15:16.746Z,93.29
2019-01-14T00:17:45.014Z,93.13
2019-01-14T00:20:15.019Z,93.13
2019-01-14T00:22:43.396Z,93.08
2019-01-14T00:25:11.692Z,92.98
2019-01-14T00:27:40.037Z,93.10
2019-01-14T00:30:11.795Z,93.15
2019-01-14T00:32:40.102Z,93.02
2019-01-14T00:35:08.385Z,93.00
2019-01-14T00:37:36.688Z,92.94
2019-01-14T00:40:08.257Z,92.88
2019-01-14T00:42:37.384Z,92.64
2019-01-14T00:45:06.695Z,92.74
2019-01-14T00:47:36.699Z,92.78
2019-01-14T00:50:07.731Z,92.95
2019-01-14T00:52:36.137Z,92.99
2019-01-14T00:55:06.829Z,93.05
2019-01-14T00:57:35.117Z,93.24
2019-01-14T01:00:09.217Z,93.27
2019-01-14T01:02:37.645Z,93.28
2019-01-14T01:05:06.972Z,93.23
2019-01-14T01:07:35.239Z,93.34
2019-01-14T01:10:06.109Z,93.28
2019-01-14T01:12:34.423Z,93.13
2019-01-14T01:15:03.087Z,92.91
2019-01-14T01:17:31.415Z,92.98
2019-01-14T01:19:59.812Z,92.96
2019-01-14T01:22:28.099Z,93.19
2019-01-14T01:24:56.457Z,93.32
2019-01-14T01:27:24.826Z,93.33
2019-01-14T01:29:53.106Z,93.35
2019-01-14T01:32:21.374Z,93.17
2019-01-14T01:34:49.731Z,93.20
2019-01-14T01:37:18.108Z,93.24
2019-01-14T01:39:46.469Z,93.37
2019-01-14T01:42:14.889Z,93.52
2019-01-14T01:44:43.164Z,93.62
2019-01-14T01:47:11.504Z,93.65
2019-01-14T01:49:39.822Z,93.79
2019-01-14T01:52:08.183Z,93.83
2019-01-14T01:54:36.577Z,93.88
2019-01-14T01:57:04.867Z,93.91
2019-01-14T01:59:33.182Z,94.13
2019-01-14T02:02:01.567Z,94.21
2019-01-14T02:04:29.914Z,94.26
2019-01-14T02:06:58.229Z,94.26
2019-01-14T02:09:26.532Z,94.36
2019-01-14T02:11:54.911Z,94.39
2019-01-14T02:14:23.347Z,94.34
2019-01-14T02:16:51.742Z,94.18
2019-01-14T02:19:20.090Z,94.17
2019-01-14T02:21:48.352Z,94.24
2019-01-14T02:24:16.655Z,94.13
2019-01-14T02:26:44.992Z,94.05
2019-01-14T02:29:13.463Z,94.16
2019-01-14T02:31:41.798Z,94.15
2019-01-14T02:34:10.114Z,94.11
2019-01-14T02:36:38.405Z,94.14
2019-01-14T02:39:09.267Z,94.06
2019-01-14T02:41:37.602Z,94.04
2019-01-14T02:44:06.008Z,94.04
2019-01-14T02:46:34.304Z,93.97
2019-01-14T02:49:02.574Z,93.88
2019-01-14T02:51:30.937Z,93.72
2019-01-14T02:53:59.335Z,93.50
2019-01-14T02:56:27.722Z,93.38
2019-01-14T02:58:56.128Z,92.99
2019-01-14T03:01:24.467Z,92.81
2019-01-14T03:03:54.079Z,92.46
2019-01-14T03:06:22.376Z,92.17
2019-01-14T03:08:50.804Z,92.31
2019-01-14T03:11:19.106Z,92.22
2019-01-14T03:13:47.441Z,92.15
2019-01-14T03:16:15.778Z,91.95
2019-01-14T03:18:44.075Z,91.59
2019-01-14T03:21:12.363Z,91.55
2019-01-14T03:23:40.660Z,91.03
2019-01-14T03:26:09.064Z,91.23
2019-01-14T03:28:37.322Z,90.75
2019-01-14T03:31:05.625Z,90.56
2019-01-14T03:33:34.026Z,90.37
2019-01-14T03:36:02.361Z,90.21
2019-01-14T03:38:31.519Z,90.11
2019-01-14T03:40:59.836Z,90.20
2019-01-14T03:43:28.093Z,89.52
2019-01-14T03:45:56.597Z,89.15
2019-01-14T03:48:24.927Z,88.78
2019-01-14T03:50:53.308Z,88.94
2019-01-14T03:53:21.704Z,89.13
2019-01-14T03:55:50.014Z,89.19
2019-01-14T03:58:18.288Z,89.08
2019-01-14T04:00:46.627Z,88.76
2019-01-14T04:03:14.947Z,88.97
2019-01-14T04:05:43.298Z,88.56
2019-01-14T04:08:11.640Z,88.65
2019-01-14T04:10:39.963Z,88.32
2019-01-14T04:13:08.322Z,87.96
2019-01-14T04:15:36.711Z,87.79
2019-01-14T04:18:05.028Z,87.47
2019-01-14T04:20:33.362Z,87.55
2019-01-14T04:23:01.703Z,87.40
2019-01-14T04:25:30.006Z,87.17
2019-01-14T04:27:58.350Z,86.86
2019-01-14T04:30:26.747Z,87.10
2019-01-14T04:32:55.133Z,86.49
2019-01-14T04:35:23.396Z,86.40
2019-01-14T04:37:51.798Z,86.49
2019-01-14T04:40:20.138Z,86.76
2019-01-14T04:42:48.476Z,86.26
2019-01-14T04:45:16.948Z,85.75
2019-01-14T04:47:45.283Z,85.65
2019-01-14T04:50:19.695Z,85.55
2019-01-14T04:52:48.162Z,85.81
2019-01-14T04:55:16.503Z,85.69
2019-01-14T04:57:44.894Z,85.73
2019-01-14T05:00:19.672Z,85.60
2019-01-14T05:02:48.021Z,86.17
2019-01-14T05:05:16.365Z,86.18
2019-01-14T05:07:44.670Z,86.44
2019-01-14T05:10:16.255Z,86.62
2019-01-14T05:12:44.664Z,86.89
2019-01-14T05:15:13.283Z,86.62
2019-01-14T05:17:42.456Z,86.51
2019-01-14T05:20:16.847Z,86.64
2019-01-14T05:22:45.122Z,86.59
2019-01-14T05:25:13.438Z,86.88
2019-01-14T05:27:41.883Z,86.66
2019-01-14T05:30:16.308Z,86.36
2019-01-14T05:32:44.658Z,86.46
2019-01-14T05:35:13.295Z,86.53
2019-01-14T05:37:41.656Z,86.52
2019-01-14T05:40:25.065Z,86.57
2019-01-14T05:42:53.463Z,86.29
2019-01-14T05:45:21.771Z,86.16
2019-01-14T05:47:50.176Z,85.95
2019-01-14T05:50:18.503Z,86.03
2019-01-14T05:52:50.605Z,86.22
2019-01-14T05:55:19.347Z,85.74
2019-01-14T05:57:47.729Z,85.74
2019-01-14T06:00:29.398Z,85.99
2019-01-14T06:02:57.660Z,85.78
2019-01-14T06:05:25.967Z,85.84
2019-01-14T06:07:54.453Z,85.61
2019-01-14T06:10:22.721Z,85.85
2019-01-14T06:12:51.089Z,86.27
2019-01-14T06:15:19.516Z,86.26
2019-01-14T06:17:47.847Z,86.25
2019-01-14T06:20:19.863Z,86.76
2019-01-14T06:22:48.247Z,86.98
2019-01-14T06:25:17.243Z,86.79
2019-01-14T06:27:45.648Z,86.84
2019-01-14T06:30:17.189Z,86.27
2019-01-14T06:32:45.503Z,86.27
2019-01-14T06:35:13.799Z,86.22
2019-01-14T06:37:42.066Z,85.90
2019-01-14T06:40:19.479Z,85.85
2019-01-14T06:42:47.817Z,85.94
2019-01-14T06:45:16.156Z,85.91
2019-01-14T06:47:44.484Z,85.78
2019-01-14T06:50:15.524Z,86.02
2019-01-14T06:52:43.821Z,86.22
2019-01-14T06:55:12.296Z,86.64
2019-01-14T06:57:40.626Z,87.71
2019-01-14T07:00:15.418Z,87.60
2019-01-14T07:02:43.855Z,86.91
2019-01-14T07:05:12.331Z,87.12
2019-01-14T07:07:40.656Z,86.89
2019-01-14T07:10:15.296Z,87.19
2019-01-14T07:12:43.628Z,87.75
2019-01-14T07:15:12.030Z,88.07
2019-01-14T07:17:40.331Z,88.15
2019-01-14T07:20:14.375Z,88.55
2019-01-14T07:22:42.723Z,88.61
2019-01-14T07:25:11.031Z,88.37
2019-01-14T07:27:39.391Z,88.70
2019-01-14T07:30:13.871Z,88.48
2019-01-14T07:32:42.175Z,88.70
2019-01-14T07:35:10.554Z,88.94
2019-01-14T07:37:38.883Z,89.20
2019-01-14T07:40:10.551Z,89.45
2019-01-14T07:42:38.887Z,89.46
2019-01-14T07:45:10.718Z,89.13
2019-01-14T07:47:39.043Z,87.58
2019-01-14T07:50:10.437Z,88.42
2019-01-14T07:52:38.906Z,88.89
2019-01-14T07:55:07.339Z,89.23
2019-01-14T07:57:35.626Z,89.33
2019-01-14T08:00:13.002Z,89.74
2019-01-14T08:02:41.264Z,89.90
2019-01-14T08:05:09.622Z,89.95
2019-01-14T08:07:37.899Z,89.94
2019-01-14T08:10:07.530Z,90.13
2019-01-14T08:12:35.938Z,89.90
2019-01-14T08:15:07.458Z,89.63
2019-01-14T08:17:35.717Z,88.96
2019-01-14T08:20:06.752Z,88.70
2019-01-14T08:22:35.158Z,88.76
2019-01-14T08:25:04.641Z,88.16
2019-01-14T08:27:32.963Z,89.04
2019-01-14T08:30:01.351Z,86.58
2019-01-14T08:32:29.752Z,86.05
2019-01-14T08:34:58.048Z,86.99
2019-01-14T08:37:26.583Z,87.39
2019-01-14T08:39:54.845Z,86.66
2019-01-14T08:42:23.249Z,86.25
2019-01-14T08:44:51.702Z,85.46
2019-01-14T08:47:19.990Z,86.55
2019-01-14T08:49:48.512Z,87.14
2019-01-14T08:52:16.798Z,87.06
2019-01-14T08:54:45.069Z,86.62
2019-01-14T08:57:13.428Z,86.89
2019-01-14T08:59:41.769Z,86.92
2019-01-14T09:02:10.151Z,87.29
2019-01-14T09:04:38.459Z,86.07
2019-01-14T09:07:07.001Z,85.10
2019-01-14T09:09:35.365Z,83.83
2019-01-14T09:12:03.665Z,83.26
2019-01-14T09:14:32.028Z,82.06
2019-01-14T09:17:00.364Z,82.26
2019-01-14T09:19:28.859Z,81.54
2019-01-14T09:21:57.122Z,81.42
2019-01-14T09:24:25.448Z,80.69
2019-01-14T09:26:53.783Z,80.49
2019-01-14T09:29:22.082Z,79.60
2019-01-14T09:31:51.674Z,79.72
2019-01-14T09:34:20.116Z,80.32
2019-01-14T09:36:48.429Z,80.50
2019-01-14T09:39:16.723Z,80.04
2019-01-14T09:41:45.095Z,79.94
2019-01-14T09:44:13.414Z,79.82
2019-01-14T09:46:41.752Z,78.36
2019-01-14T09:49:10.039Z,78.23
2019-01-14T09:51:38.365Z,77.60
2019-01-14T09:54:06.637Z,78.06
2019-01-14T09:56:34.999Z,78.22
2019-01-14T09:59:03.267Z,79.61
2019-01-14T10:01:31.646Z,80.03
2019-01-14T10:03:59.974Z,81.55
2019-01-14T10:06:28.337Z,82.75
2019-01-14T10:08:56.868Z,83.27
2019-01-14T10:11:25.312Z,84.50
2019-01-14T10:13:53.586Z,84.14
2019-01-14T10:16:21.990Z,83.69
2019-01-14T10:18:50.324Z,84.42
2019-01-14T10:21:18.592Z,84.33
2019-01-14T10:23:46.884Z,84.78
2019-01-14T10:26:16.260Z,85.53
2019-01-14T10:28:46.534Z,85.51
2019-01-14T10:31:19.677Z,84.91
2019-01-14T10:33:44.846Z,83.76
2019-01-14T10:36:13.131Z,83.22
2019-01-14T10:38:41.506Z,83.37
2019-01-14T10:41:09.855Z,81.97
2019-01-14T10:43:38.187Z,81.92
2019-01-14T10:46:06.547Z,80.32
2019-01-14T10:48:34.959Z,80.97
2019-01-14T10:51:03.296Z,80.43
2019-01-14T10:53:31.976Z,79.54
2019-01-14T10:56:00.313Z,78.79
2019-01-14T10:58:28.593Z,78.04
2019-01-14T11:00:56.967Z,78.60
2019-01-14T11:03:25.434Z,77.91
2019-01-14T11:05:53.771Z,77.64
2019-01-14T11:08:22.124Z,77.06
2019-01-14T11:10:50.521Z,77.18
2019-01-14T11:13:18.921Z,76.75
2019-01-14T11:15:47.258Z,76.24
2019-01-14T11:18:15.592Z,77.24
2019-01-14T11:20:43.898Z,77.00
2019-01-14T11:23:12.181Z,75.96
2019-01-14T11:25:40.700Z,76.83
2019-01-14T11:28:09.007Z,77.68
2019-01-14T11:30:37.295Z,77.59
2019-01-14T11:33:05.656Z,76.33
2019-01-14T11:35:35.608Z,75.40
2019-01-14T11:38:03.975Z,76.14
2019-01-14T11:40:35.576Z,76.37
2019-01-14T11:43:03.900Z,74.50
2019-01-14T11:45:32.192Z,75.77
2019-01-14T11:48:00.597Z,74.30
2019-01-14T11:50:29.007Z,73.71
2019-01-14T11:52:57.311Z,73.85
2019-01-14T11:55:25.659Z,73.96
2019-01-14T11:57:54.110Z,72.77
2019-01-14T12:00:26.509Z,72.37
2019-01-14T12:02:54.870Z,73.20
2019-01-14T12:05:23.139Z,74.31
2019-01-14T12:07:51.535Z,75.52
2019-01-14T12:10:19.862Z,76.30
2019-01-14T12:12:48.205Z,77.43
2019-01-14T12:15:25.610Z,82.34
2019-01-14T12:17:53.966Z,81.35
2019-01-14T12:20:22.497Z,81.06
2019-01-14T12:22:50.796Z,81.01
2019-01-14T12:25:20.026Z,81.46
2019-01-14T12:27:49.040Z,81.35
2019-01-14T12:30:20.607Z,80.38
2019-01-14T12:32:48.994Z,81.73
2019-01-14T12:35:17.359Z,81.69
2019-01-14T12:37:45.626Z,80.93
2019-01-14T12:40:13.973Z,81.22
2019-01-14T12:42:42.298Z,78.96
2019-01-14T12:45:13.544Z,80.09
2019-01-14T12:47:41.812Z,79.54
2019-01-14T12:50:13.546Z,77.86
2019-01-14T12:52:41.888Z,76.12
2019-01-14T12:55:12.673Z,74.88
2019-01-14T12:57:41.019Z,74.15
2019-01-14T13:00:19.880Z,74.58
2019-01-14T13:02:48.274Z,75.67
2019-01-14T13:05:18.674Z,75.83
2019-01-14T13:07:47.791Z,76.75
2019-01-14T13:10:16.166Z,76.45
2019-01-14T13:12:44.952Z,75.55
2019-01-14T13:15:22.494Z,75.32
2019-01-14T13:17:50.765Z,75.90
2019-01-14T13:20:22.815Z,75.72
2019-01-14T13:22:51.678Z,74.65
2019-01-14T13:25:20.002Z,72.75
2019-01-14T13:27:48.299Z,74.74
2019-01-14T13:30:20.483Z,72.16
2019-01-14T13:32:48.932Z,73.47
2019-01-14T13:35:17.765Z,73.19
2019-01-14T13:37:46.188Z,73.26
2019-01-14T13:40:19.622Z,73.24
2019-01-14T13:42:47.925Z,72.14
2019-01-14T13:45:21.273Z,72.54
2019-01-14T13:47:49.801Z,73.29
2019-01-14T13:50:22.088Z,72.96
2019-01-14T13:52:51.394Z,72.79
2019-01-14T13:55:20.761Z,73.30
2019-01-14T13:57:49.862Z,71.90
2019-01-14T14:00:25.475Z,71.84
2019-01-14T14:02:53.856Z,72.30
2019-01-14T14:05:22.196Z,71.53
2019-01-14T14:07:50.646Z,67.94
2019-01-14T14:10:26.454Z,68.68
2019-01-14T14:12:54.929Z,67.87
2019-01-14T14:15:31.006Z,66.76
2019-01-14T14:17:59.402Z,66.09
2019-01-14T14:20:27.743Z,64.42
2019-01-14T14:22:56.155Z,65.21
2019-01-14T14:25:24.487Z,64.71
2019-01-14T14:27:52.837Z,65.69
2019-01-14T14:30:32.614Z,64.47
2019-01-14T14:33:00.946Z,64.43
2019-01-14T14:35:29.261Z,64.98
2019-01-14T14:38:01.335Z,64.48
2019-01-14T14:40:27.723Z,64.00
2019-01-14T14:42:56.100Z,64.38
2019-01-14T14:45:24.362Z,64.79
2019-01-14T14:47:52.667Z,64.75
2019-01-14T14:50:22.104Z,65.57
2019-01-14T14:52:50.384Z,66.10
2019-01-14T14:55:18.818Z,66.40
2019-01-14T14:57:47.124Z,65.31
2019-01-14T15:00:21.571Z,66.53
2019-01-14T15:02:49.966Z,67.32
2019-01-14T15:05:18.420Z,67.81
2019-01-14T15:07:46.773Z,68.55
2019-01-14T15:10:20.526Z,69.30
2019-01-14T15:12:48.813Z,69.73
2019-01-14T15:15:19.154Z,70.82
2019-01-14T15:17:48.212Z,70.58
2019-01-14T15:20:23.262Z,71.69
2019-01-14T15:22:51.610Z,71.88
2019-01-14T15:25:19.890Z,72.11
2019-01-14T15:27:48.282Z,72.55
2019-01-14T15:30:22.371Z,71.94
2019-01-14T15:32:50.698Z,72.36
2019-01-14T15:35:19.066Z,72.41
2019-01-14T15:37:47.368Z,72.45
2019-01-14T15:40:17.783Z,72.74
2019-01-14T15:42:46.143Z,73.14
2019-01-14T15:45:17.716Z,73.29
2019-01-14T15:47:46.059Z,73.74
2019-01-14T15:50:14.428Z,74.27
2019-01-14T15:52:42.803Z,74.39
2019-01-14T15:55:19.766Z,74.76
2019-01-14T15:57:48.027Z,74.91
2019-01-14T16:00:18.995Z,75.71
2019-01-14T16:02:47.481Z,77.03
2019-01-14T16:05:17.877Z,76.50
2019-01-14T16:07:49.244Z,77.11
2019-01-14T16:10:22.061Z,77.65
2019-01-14T16:12:51.697Z,77.91
2019-01-14T16:15:19.969Z,78.25
2019-01-14T16:17:48.944Z,77.80
2019-01-14T16:20:20.226Z,78.17
2019-01-14T16:22:49.300Z,78.42
2019-01-14T16:25:18.957Z,78.46
2019-01-14T16:27:49.034Z,78.58
2019-01-14T16:30:24.772Z,78.92
2019-01-14T16:32:53.269Z,79.32
2019-01-14T16:35:21.667Z,80.17
2019-01-14T16:37:49.968Z,80.68
2019-01-14T16:40:18.544Z,80.95
2019-01-14T16:42:47.183Z,81.30
2019-01-14T16:45:18.812Z,81.57
2019-01-14T16:47:47.191Z,81.69
2019-01-14T16:50:16.098Z,81.97
2019-01-14T16:52:45.653Z,81.92
2019-01-14T16:55:15.651Z,81.33
2019-01-14T16:57:48.880Z,81.72
2019-01-14T17:00:19.117Z,81.79
2019-01-14T17:02:51.057Z,82.11
2019-01-14T17:05:21.344Z,81.52
2019-01-14T17:07:50.369Z,81.80
2019-01-14T17:10:25.113Z,81.17
2019-01-14T17:12:53.246Z,80.94
2019-01-14T17:15:26.765Z,81.17
2019-01-14T17:17:56.122Z,81.32
2019-01-14T17:20:24.841Z,81.59
2019-01-14T17:22:54.503Z,81.25
2019-01-14T17:25:26.409Z,81.55
2019-01-14T17:27:54.815Z,81.60
2019-01-14T17:30:24.373Z,81.87
2019-01-14T17:32:53.608Z,81.66
2019-01-14T17:35:23.918Z,81.19
2019-01-14T17:37:54.027Z,81.01
2019-01-14T17:40:22.502Z,81.06
2019-01-14T17:42:51.039Z,80.93
2019-01-14T17:45:20.822Z,81.18
2019-01-14T17:47:49.450Z,81.33
2019-01-14T17:50:20.416Z,81.62
2019-01-14T17:52:48.966Z,82.07
2019-01-14T17:55:17.425Z,81.75
2019-01-14T17:57:45.749Z,82.16
2019-01-14T18:00:20.079Z,82.01
2019-01-14T18:02:48.421Z,82.55
2019-01-14T18:05:16.899Z,82.91
2019-01-14T18:07:45.767Z,82.47
2019-01-14T18:10:20.444Z,82.51
2019-01-14T18:12:48.816Z,82.49
2019-01-14T18:15:17.183Z,82.46
2019-01-14T18:17:45.530Z,82.59
2019-01-14T18:20:17.041Z,82.89
2019-01-14T18:22:45.621Z,83.13
2019-01-14T18:25:14.006Z,83.50
2019-01-14T18:27:42.474Z,83.66
2019-01-14T18:30:13.660Z,83.67
2019-01-14T18:32:42.010Z,83.59
2019-01-14T18:35:11.709Z,83.65
2019-01-14T18:37:42.121Z,83.55
2019-01-14T18:40:15.688Z,83.70
2019-01-14T18:42:47.370Z,83.50
2019-01-14T18:45:19.305Z,82.91
2019-01-14T18:47:47.691Z,81.81
2019-01-14T18:50:20.996Z,81.48
2019-01-14T18:52:49.497Z,81.03
2019-01-14T18:55:18.044Z,80.40
2019-01-14T18:57:46.383Z,80.56
2019-01-14T19:00:17.924Z,80.16
2019-01-14T19:02:46.295Z,80.34
2019-01-14T19:05:14.553Z,80.40
2019-01-14T19:07:43.084Z,80.12
2019-01-14T19:10:12.984Z,80.52
2019-01-14T19:12:41.363Z,80.52
2019-01-14T19:15:12.960Z,80.89
2019-01-14T19:17:41.236Z,81.05
2019-01-14T19:20:15.616Z,80.90
2019-01-14T19:22:43.977Z,81.13
2019-01-14T19:25:12.721Z,80.74
2019-01-14T19:27:41.215Z,80.93
2019-01-14T19:30:12.743Z,81.30
2019-01-14T19:32:41.278Z,82.01
2019-01-14T19:35:09.564Z,81.87
2019-01-14T19:37:37.833Z,82.29
2019-01-14T19:40:09.447Z,82.11
2019-01-14T19:42:37.836Z,81.85
2019-01-14T19:45:08.028Z,81.96
2019-01-14T19:47:36.482Z,81.98
2019-01-14T19:50:08.439Z,81.90
2019-01-14T19:52:36.750Z,81.82
2019-01-14T19:55:06.135Z,82.06
2019-01-14T19:57:34.528Z,82.41
2019-01-14T20:00:02.807Z,81.89
2019-01-14T20:02:31.415Z,82.32
2019-01-14T20:04:59.750Z,82.19
2019-01-14T20:07:28.019Z,82.21
2019-01-14T20:09:56.822Z,82.09
2019-01-14T20:12:25.094Z,81.93
2019-01-14T20:14:53.537Z,82.01
2019-01-14T20:17:21.931Z,82.09
2019-01-14T20:19:50.200Z,81.92
2019-01-14T20:22:18.645Z,81.28
2019-01-14T20:24:47.026Z,81.50
2019-01-14T20:27:15.291Z,81.57
2019-01-14T20:29:43.590Z,81.17
2019-01-14T20:32:11.948Z,81.22
2019-01-14T20:34:40.251Z,80.91
2019-01-14T20:37:08.619Z,80.80
2019-01-14T20:39:37.123Z,80.95
2019-01-14T20:42:05.494Z,80.54
2019-01-14T20:44:33.978Z,80.48
2019-01-14T20:47:02.381Z,80.90
2019-01-14T20:49:30.650Z,81.28
2019-01-14T20:51:58.987Z,81.54
2019-01-14T20:54:27.508Z,81.92
2019-01-14T20:56:56.002Z,82.06
2019-01-14T20:59:24.253Z,82.41
2019-01-14T21:01:52.602Z,82.33
2019-01-14T21:04:20.888Z,82.90
2019-01-14T21:06:49.221Z,83.19
2019-01-14T21:09:17.718Z,82.86
2019-01-14T21:11:46.049Z,83.04
2019-01-14T21:14:14.569Z,83.27
2019-01-14T21:16:43.338Z,83.61
2019-01-14T21:19:13.779Z,83.84
2019-01-14T21:21:43.322Z,83.83
2019-01-14T21:24:12.924Z,84.33
2019-01-14T21:26:41.523Z,84.78
2019-01-14T21:29:09.827Z,84.30
2019-01-14T21:31:38.265Z,84.46
2019-01-14T21:34:06.915Z,84.42
2019-01-14T21:36:39.089Z,84.70
2019-01-14T21:39:12.575Z,84.82
2019-01-14T21:41:41.688Z,85.02
2019-01-14T21:44:10.453Z,85.46
2019-01-14T21:46:39.286Z,85.39
2019-01-14T21:49:07.935Z,85.48
2019-01-14T21:51:36.360Z,85.59
2019-01-14T21:54:04.965Z,85.94
2019-01-14T21:56:33.496Z,85.96
2019-01-14T21:59:02.178Z,86.01
2019-01-14T22:01:30.605Z,85.87
2019-01-14T22:03:59.096Z,86.21
2019-01-14T22:06:28.171Z,85.75
2019-01-14T22:08:56.521Z,85.59
2019-01-14T22:11:25.680Z,85.17
2019-01-14T22:13:54.179Z,85.06
2019-01-14T22:16:22.522Z,84.88
2019-01-14T22:18:51.100Z,84.86
2019-01-14T22:21:19.657Z,84.88
2019-01-14T22:23:47.996Z,84.55
2019-01-14T22:26:17.256Z,84.36
2019-01-14T22:28:45.615Z,84.34
2019-01-14T22:31:13.978Z,84.25
2019-01-14T22:33:42.410Z,84.08
2019-01-14T22:36:11.009Z,84.21
2019-01-14T22:38:40.705Z,84.56
2019-01-14T22:41:09.129Z,84.23
2019-01-14T22:43:39.297Z,84.40
2019-01-14T22:46:13.278Z,84.40
2019-01-14T22:48:42.991Z,84.50
2019-01-14T22:51:12.487Z,84.49
2019-01-14T22:53:46.145Z,84.42
2019-01-14T22:56:15.757Z,84.54
2019-01-14T22:58:45.182Z,84.66
2019-01-14T23:01:17.084Z,85.11
2019-01-14T23:03:45.483Z,85.42
2019-01-14T23:06:13.771Z,85.69
2019-01-14T23:08:42.139Z,86.11
2019-01-14T23:11:10.448Z,85.71
2019-01-14T23:13:38.787Z,85.66
2019-01-14T23:16:07.056Z,85.43
2019-01-14T23:18:35.454Z,85.74
2019-01-14T23:21:03.860Z,86.02
2019-01-14T23:23:32.269Z,86.23
2019-01-14T23:26:00.556Z,86.26
2019-01-14T23:28:28.860Z,86.11
2019-01-14T23:30:57.254Z,86.33
2019-01-14T23:33:25.609Z,86.23
2019-01-14T23:35:53.932Z,85.94
2019-01-14T23:38:22.270Z,86.06
2019-01-14T23:40:50.648Z,86.00
2019-01-14T23:43:19.036Z,85.78
2019-01-14T23:45:47.512Z,85.68
2019-01-14T23:48:15.889Z,85.90
2019-01-14T23:50:44.156Z,85.91
2019-01-14T23:53:12.622Z,86.16
2019-01-14T23:55:40.962Z,85.68
2019-01-14T23:58:09.333Z,85.71
